This is the latest recevied weather packets stored in our database for station/object KK6LZB. If no packets are shown the sender has not sent any weather packets the latest 10 day(s).
| Time | Temp. | Humidity | Pressure | Rain* | Wind** | Luminosity | Snow |
|---|---|---|---|---|---|---|---|
| 1777663120 | 21.11° C | 75% | 1016 hPa | 0 mm | - | 712 W/m² | - |
| 1777662818 | 21.11° C | 73% | 1016.2 hPa | 0 mm | - | 710 W/m² | - |
| 1777662514 | 20.56° C | 77% | 1016.1 hPa | 0 mm | - | 707 W/m² | - |
| 1777662210 | 20.56° C | 78% | 1016.1 hPa | 0 mm | - | 696 W/m² | - |
| 1777661905 | 20.56° C | 77% | 1016.2 hPa | 0 mm | - | 703 W/m² | - |
| 1777661602 | 20° C | 78% | 1016.4 hPa | 0 mm | - | 712 W/m² | - |
| 1777661298 | 20.56° C | 76% | 1016.6 hPa | 0 mm | - | 710 W/m² | - |
| 1777660994 | 20.56° C | 76% | 1016.6 hPa | 0 mm | - | 678 W/m² | - |
| 1777660690 | 21.67° C | 74% | 1016.4 hPa | 0 mm | - | 781 W/m² | - |
| 1777660387 | 21.67° C | 71% | 1016.5 hPa | 0 mm | - | 311 W/m² | - |
| 1777660083 | 22.22° C | 69% | 1016.5 hPa | 0 mm | - | 347 W/m² | - |
| 1777659780 | 21.11° C | 73% | 1016.7 hPa | 0 mm | - | 710 W/m² | - |
| 1777659477 | 21.67° C | 73% | 1016.9 hPa | 0 mm | - | 575 W/m² | - |
| 1777659174 | 22.22° C | 67% | 1016.9 hPa | 0 mm | - | 331 W/m² | - |
| 1777658871 | 21.11° C | 71% | 1016.9 hPa | 0 mm | - | 363 W/m² | - |
| 1777658567 | 20° C | 77% | 1017 hPa | 0 mm | - | 470 W/m² | - |
| 1777658264 | 18.89° C | 77% | 1016.9 hPa | 0 mm | - | 369 W/m² | - |
| 1777657962 | 18.89° C | 78% | 1017.1 hPa | 0 mm | - | 282 W/m² | - |
| 1777657658 | 19.44° C | 78% | 1016.8 hPa | 0 mm | - | 260 W/m² | - |
| 1777657355 | 18.89° C | 77% | 1017.1 hPa | 0 mm | - | 232 W/m² | - |
| 1777657053 | 18.89° C | 79% | 1017.3 hPa | 0 mm | - | 202 W/m² | - |
| 1777656750 | 17.78° C | 81% | 1016.9 hPa | 0 mm | - | 195 W/m² | - |
| 1777656446 | 18.89° C | 79% | 1017.2 hPa | 0 mm | - | 189 W/m² | - |
| 1777656141 | 19.44° C | 77% | 1017.1 hPa | 0 mm | - | 195 W/m² | - |
| 1777655837 | 18.89° C | 79% | 1017.1 hPa | 0 mm | - | 195 W/m² | - |
* Rain latest hour (hover to see other rain measurements)
** Current wind speed in m/s (hover to see current wind gust speed)